sensor_id;sensor_type;location;lat;lon;timestamp;P1;durP1;ratioP1;P2;durP2;ratioP2
26211;SDS011;13951;49.516;6.094;2022-08-20T00:02:23;0.95;;;0.70;;
26211;SDS011;13951;49.516;6.094;2022-08-20T00:04:58;0.50;;;0.50;;
26211;SDS011;13951;49.516;6.094;2022-08-20T00:07:32;0.60;;;0.60;;
26211;SDS011;13951;49.516;6.094;2022-08-20T00:10:06;1.63;;;0.88;;
26211;SDS011;13951;49.516;6.094;2022-08-20T00:12:44;0.70;;;0.70;;
26211;SDS011;13951;49.516;6.094;2022-08-20T00:15:19;0.63;;;0.63;;
26211;SDS011;13951;49.516;6.094;2022-08-20T00:17:54;0.80;;;0.70;;
26211;SDS011;13951;49.516;6.094;2022-08-20T00:20:29;0.55;;;0.55;;
26211;SDS011;13951;49.516;6.094;2022-08-20T00:23:04;1.35;;;0.85;;
26211;SDS011;13951;49.516;6.094;2022-08-20T00:25:42;0.75;;;0.70;;
26211;SDS011;13951;49.516;6.094;2022-08-20T00:28:16;1.27;;;0.63;;
26211;SDS011;13951;49.516;6.094;2022-08-20T00:30:49;0.50;;;0.50;;
26211;SDS011;13951;49.516;6.094;2022-08-20T00:33:23;0.85;;;0.70;;
26211;SDS011;13951;49.516;6.094;2022-08-20T00:35:56;1.35;;;0.80;;
26211;SDS011;13951;49.516;6.094;2022-08-20T00:38:34;0.70;;;0.70;;
26211;SDS011;13951;49.516;6.094;2022-08-20T00:41:10;0.85;;;0.80;;
26211;SDS011;13951;49.516;6.094;2022-08-20T00:43:49;0.60;;;0.60;;
26211;SDS011;13951;49.516;6.094;2022-08-20T00:46:26;0.82;;;0.70;;
26211;SDS011;13951;49.516;6.094;2022-08-20T00:49:04;0.68;;;0.65;;
26211;SDS011;13951;49.516;6.094;2022-08-20T00:54:22;0.93;;;0.80;;
26211;SDS011;13951;49.516;6.094;2022-08-20T00:57:03;1.65;;;0.82;;
26211;SDS011;13951;49.516;6.094;2022-08-20T00:59:42;0.88;;;0.80;;
26211;SDS011;13951;49.516;6.094;2022-08-20T01:02:27;1.08;;;0.70;;
26211;SDS011;13951;49.516;6.094;2022-08-20T01:05:13;0.88;;;0.80;;
26211;SDS011;13951;49.516;6.094;2022-08-20T01:07:50;0.90;;;0.80;;
26211;SDS011;13951;49.516;6.094;2022-08-20T01:10:28;0.95;;;0.68;;
26211;SDS011;13951;49.516;6.094;2022-08-20T01:13:16;0.70;;;0.70;;
26211;SDS011;13951;49.516;6.094;2022-08-20T01:16:05;0.88;;;0.80;;
26211;SDS011;13951;49.516;6.094;2022-08-20T01:18:57;1.25;;;0.90;;
26211;SDS011;13951;49.516;6.094;2022-08-20T01:21:58;0.80;;;0.70;;
26211;SDS011;13951;49.516;6.094;2022-08-20T01:24:36;0.85;;;0.80;;
26211;SDS011;13951;49.516;6.094;2022-08-20T01:27:13;0.70;;;0.70;;
26211;SDS011;13951;49.516;6.094;2022-08-20T01:29:46;1.10;;;0.70;;
26211;SDS011;13951;49.516;6.094;2022-08-20T01:32:20;0.95;;;0.80;;
26211;SDS011;13951;49.516;6.094;2022-08-20T01:34:53;0.80;;;0.70;;
26211;SDS011;13951;49.516;6.094;2022-08-20T01:37:28;0.77;;;0.77;;
26211;SDS011;13951;49.516;6.094;2022-08-20T01:40:03;0.82;;;0.80;;
26211;SDS011;13951;49.516;6.094;2022-08-20T01:42:44;1.00;;;0.77;;
26211;SDS011;13951;49.516;6.094;2022-08-20T01:45:31;1.40;;;0.70;;
26211;SDS011;13951;49.516;6.094;2022-08-20T01:48:04;1.15;;;0.80;;
26211;SDS011;13951;49.516;6.094;2022-08-20T01:50:37;0.65;;;0.60;;
26211;SDS011;13951;49.516;6.094;2022-08-20T01:53:20;0.60;;;0.60;;
26211;SDS011;13951;49.516;6.094;2022-08-20T01:56:00;0.63;;;0.63;;
26211;SDS011;13951;49.516;6.094;2022-08-20T01:58:37;0.95;;;0.70;;
26211;SDS011;13951;49.516;6.094;2022-08-20T02:01:20;2.42;;;0.95;;
26211;SDS011;13951;49.516;6.094;2022-08-20T02:04:18;0.80;;;0.80;;
26211;SDS011;13951;49.516;6.094;2022-08-20T02:06:53;1.80;;;0.82;;
26211;SDS011;13951;49.516;6.094;2022-08-20T02:09:31;0.70;;;0.70;;
26211;SDS011;13951;49.516;6.094;2022-08-20T02:12:08;0.90;;;0.73;;
26211;SDS011;13951;49.516;6.094;2022-08-20T02:14:42;0.85;;;0.80;;
26211;SDS011;13951;49.516;6.094;2022-08-20T02:17:19;1.33;;;0.70;;
26211;SDS011;13951;49.516;6.094;2022-08-20T02:19:56;1.50;;;0.90;;
26211;SDS011;13951;49.516;6.094;2022-08-20T02:25:22;1.35;;;0.95;;
26211;SDS011;13951;49.516;6.094;2022-08-20T02:27:57;1.10;;;1.00;;
26211;SDS011;13951;49.516;6.094;2022-08-20T02:30:33;1.23;;;1.00;;
26211;SDS011;13951;49.516;6.094;2022-08-20T02:33:11;1.85;;;1.10;;
26211;SDS011;13951;49.516;6.094;2022-08-20T02:35:47;1.65;;;1.08;;
26211;SDS011;13951;49.516;6.094;2022-08-20T02:38:21;1.63;;;1.20;;
26211;SDS011;13951;49.516;6.094;2022-08-20T02:40:54;0.80;;;0.80;;
26211;SDS011;13951;49.516;6.094;2022-08-20T02:43:27;1.95;;;1.10;;
26211;SDS011;13951;49.516;6.094;2022-08-20T02:46:00;1.05;;;1.00;;
26211;SDS011;13951;49.516;6.094;2022-08-20T02:48:33;1.70;;;1.20;;
26211;SDS011;13951;49.516;6.094;2022-08-20T02:51:07;1.63;;;1.30;;
26211;SDS011;13951;49.516;6.094;2022-08-20T02:53:40;1.15;;;1.00;;
26211;SDS011;13951;49.516;6.094;2022-08-20T02:56:13;1.33;;;1.23;;
26211;SDS011;13951;49.516;6.094;2022-08-20T02:58:47;1.40;;;1.17;;
26211;SDS011;13951;49.516;6.094;2022-08-20T03:01:20;1.88;;;1.10;;
26211;SDS011;13951;49.516;6.094;2022-08-20T03:03:54;1.27;;;0.90;;
26211;SDS011;13951;49.516;6.094;2022-08-20T03:06:30;1.10;;;1.00;;
26211;SDS011;13951;49.516;6.094;2022-08-20T03:09:03;1.20;;;1.10;;
26211;SDS011;13951;49.516;6.094;2022-08-20T03:11:39;1.98;;;1.20;;
26211;SDS011;13951;49.516;6.094;2022-08-20T03:14:12;0.90;;;0.90;;
26211;SDS011;13951;49.516;6.094;2022-08-20T03:16:45;1.45;;;0.90;;
26211;SDS011;13951;49.516;6.094;2022-08-20T03:19:18;1.50;;;1.00;;
26211;SDS011;13951;49.516;6.094;2022-08-20T03:21:51;1.23;;;1.00;;
26211;SDS011;13951;49.516;6.094;2022-08-20T03:24:25;1.38;;;0.90;;
26211;SDS011;13951;49.516;6.094;2022-08-20T03:26:58;1.00;;;0.90;;
26211;SDS011;13951;49.516;6.094;2022-08-20T03:29:31;0.80;;;0.80;;
26211;SDS011;13951;49.516;6.094;2022-08-20T03:32:04;2.08;;;1.05;;
26211;SDS011;13951;49.516;6.094;2022-08-20T03:34:39;0.80;;;0.80;;
26211;SDS011;13951;49.516;6.094;2022-08-20T03:37:12;1.05;;;0.90;;
26211;SDS011;13951;49.516;6.094;2022-08-20T03:39:45;0.85;;;0.85;;
26211;SDS011;13951;49.516;6.094;2022-08-20T03:42:18;1.23;;;1.02;;
26211;SDS011;13951;49.516;6.094;2022-08-20T03:44:52;1.15;;;0.93;;
26211;SDS011;13951;49.516;6.094;2022-08-20T03:47:30;1.15;;;0.98;;
26211;SDS011;13951;49.516;6.094;2022-08-20T03:50:08;0.98;;;0.70;;
26211;SDS011;13951;49.516;6.094;2022-08-20T03:52:54;0.70;;;0.68;;
26211;SDS011;13951;49.516;6.094;2022-08-20T03:55:29;0.77;;;0.77;;
26211;SDS011;13951;49.516;6.094;2022-08-20T03:58:04;1.85;;;0.80;;
26211;SDS011;13951;49.516;6.094;2022-08-20T04:00:40;1.20;;;1.00;;
26211;SDS011;13951;49.516;6.094;2022-08-20T04:03:16;0.68;;;0.68;;
26211;SDS011;13951;49.516;6.094;2022-08-20T04:05:49;1.00;;;0.88;;
26211;SDS011;13951;49.516;6.094;2022-08-20T04:08:24;2.10;;;1.10;;
26211;SDS011;13951;49.516;6.094;2022-08-20T04:10:58;1.52;;;0.95;;
26211;SDS011;13951;49.516;6.094;2022-08-20T04:13:32;1.92;;;0.98;;
26211;SDS011;13951;49.516;6.094;2022-08-20T04:16:11;1.33;;;1.10;;
26211;SDS011;13951;49.516;6.094;2022-08-20T04:18:47;1.50;;;1.00;;
26211;SDS011;13951;49.516;6.094;2022-08-20T04:21:34;1.65;;;1.20;;
26211;SDS011;13951;49.516;6.094;2022-08-20T04:24:07;1.98;;;1.05;;
26211;SDS011;13951;49.516;6.094;2022-08-20T04:27:00;2.00;;;1.05;;
26211;SDS011;13951;49.516;6.094;2022-08-20T04:29:38;1.80;;;1.10;;
26211;SDS011;13951;49.516;6.094;2022-08-20T04:32:14;1.50;;;1.00;;
26211;SDS011;13951;49.516;6.094;2022-08-20T04:34:49;2.95;;;1.20;;
26211;SDS011;13951;49.516;6.094;2022-08-20T04:37:23;1.45;;;1.15;;
26211;SDS011;13951;49.516;6.094;2022-08-20T04:39:56;1.15;;;1.02;;
26211;SDS011;13951;49.516;6.094;2022-08-20T04:42:48;2.53;;;1.20;;
26211;SDS011;13951;49.516;6.094;2022-08-20T04:45:25;2.47;;;1.10;;
26211;SDS011;13951;49.516;6.094;2022-08-20T04:48:02;1.80;;;0.82;;
26211;SDS011;13951;49.516;6.094;2022-08-20T04:50:41;3.20;;;0.90;;
26211;SDS011;13951;49.516;6.094;2022-08-20T04:53:18;1.25;;;0.82;;
26211;SDS011;13951;49.516;6.094;2022-08-20T04:55:58;2.05;;;0.95;;
26211;SDS011;13951;49.516;6.094;2022-08-20T04:58:33;1.70;;;0.80;;
26211;SDS011;13951;49.516;6.094;2022-08-20T05:01:09;2.53;;;1.10;;
26211;SDS011;13951;49.516;6.094;2022-08-20T05:03:46;1.45;;;1.00;;
26211;SDS011;13951;49.516;6.094;2022-08-20T05:06:19;1.63;;;1.00;;
26211;SDS011;13951;49.516;6.094;2022-08-20T05:08:53;1.38;;;1.27;;
26211;SDS011;13951;49.516;6.094;2022-08-20T05:11:27;3.15;;;1.40;;
26211;SDS011;13951;49.516;6.094;2022-08-20T05:14:04;2.25;;;1.40;;
26211;SDS011;13951;49.516;6.094;2022-08-20T05:16:40;1.92;;;1.17;;
26211;SDS011;13951;49.516;6.094;2022-08-20T05:19:13;2.80;;;1.27;;
26211;SDS011;13951;49.516;6.094;2022-08-20T05:21:46;3.67;;;1.33;;
26211;SDS011;13951;49.516;6.094;2022-08-20T05:24:20;2.72;;;1.38;;
26211;SDS011;13951;49.516;6.094;2022-08-20T05:26:53;2.67;;;1.10;;
26211;SDS011;13951;49.516;6.094;2022-08-20T05:29:27;3.25;;;1.25;;
26211;SDS011;13951;49.516;6.094;2022-08-20T05:32:01;1.63;;;1.00;;
26211;SDS011;13951;49.516;6.094;2022-08-20T05:34:34;2.30;;;1.25;;
26211;SDS011;13951;49.516;6.094;2022-08-20T05:37:08;2.47;;;1.50;;
26211;SDS011;13951;49.516;6.094;2022-08-20T05:39:43;3.35;;;1.50;;
26211;SDS011;13951;49.516;6.094;2022-08-20T05:42:16;2.83;;;1.30;;
26211;SDS011;13951;49.516;6.094;2022-08-20T05:44:49;2.60;;;1.38;;
26211;SDS011;13951;49.516;6.094;2022-08-20T05:47:22;1.25;;;1.15;;
26211;SDS011;13951;49.516;6.094;2022-08-20T05:49:59;4.13;;;1.65;;
26211;SDS011;13951;49.516;6.094;2022-08-20T05:52:35;2.15;;;1.50;;
26211;SDS011;13951;49.516;6.094;2022-08-20T05:55:10;2.53;;;1.90;;
26211;SDS011;13951;49.516;6.094;2022-08-20T05:57:44;3.40;;;2.10;;
26211;SDS011;13951;49.516;6.094;2022-08-20T06:00:17;3.55;;;2.35;;
26211;SDS011;13951;49.516;6.094;2022-08-20T06:02:50;3.83;;;2.88;;
26211;SDS011;13951;49.516;6.094;2022-08-20T06:05:42;3.15;;;2.53;;
26211;SDS011;13951;49.516;6.094;2022-08-20T06:08:16;3.30;;;2.47;;
26211;SDS011;13951;49.516;6.094;2022-08-20T06:10:49;2.50;;;2.13;;
26211;SDS011;13951;49.516;6.094;2022-08-20T06:13:22;4.47;;;1.77;;
26211;SDS011;13951;49.516;6.094;2022-08-20T06:15:56;2.00;;;1.63;;
26211;SDS011;13951;49.516;6.094;2022-08-20T06:18:29;3.00;;;1.98;;
26211;SDS011;13951;49.516;6.094;2022-08-20T06:21:02;2.28;;;1.48;;
26211;SDS011;13951;49.516;6.094;2022-08-20T06:23:35;2.53;;;1.90;;
26211;SDS011;13951;49.516;6.094;2022-08-20T06:26:28;3.58;;;1.75;;
26211;SDS011;13951;49.516;6.094;2022-08-20T06:29:03;2.97;;;1.95;;
26211;SDS011;13951;49.516;6.094;2022-08-20T06:31:37;1.60;;;1.48;;
26211;SDS011;13951;49.516;6.094;2022-08-20T06:34:11;5.20;;;1.95;;
26211;SDS011;13951;49.516;6.094;2022-08-20T06:36:44;4.05;;;2.20;;
26211;SDS011;13951;49.516;6.094;2022-08-20T06:39:18;2.03;;;1.60;;
26211;SDS011;13951;49.516;6.094;2022-08-20T06:41:51;4.50;;;1.90;;
26211;SDS011;13951;49.516;6.094;2022-08-20T06:44:24;2.00;;;1.80;;
26211;SDS011;13951;49.516;6.094;2022-08-20T06:47:00;4.95;;;2.03;;
26211;SDS011;13951;49.516;6.094;2022-08-20T06:49:35;2.75;;;1.77;;
26211;SDS011;13951;49.516;6.094;2022-08-20T06:52:08;2.47;;;1.52;;
26211;SDS011;13951;49.516;6.094;2022-08-20T06:54:43;4.28;;;2.05;;
26211;SDS011;13951;49.516;6.094;2022-08-20T06:57:17;4.03;;;1.95;;
26211;SDS011;13951;49.516;6.094;2022-08-20T06:59:50;2.22;;;1.30;;
26211;SDS011;13951;49.516;6.094;2022-08-20T07:02:26;2.47;;;1.10;;
26211;SDS011;13951;49.516;6.094;2022-08-20T07:05:03;4.13;;;1.50;;
26211;SDS011;13951;49.516;6.094;2022-08-20T07:07:37;5.97;;;1.50;;
26211;SDS011;13951;49.516;6.094;2022-08-20T07:10:11;3.83;;;1.40;;
26211;SDS011;13951;49.516;6.094;2022-08-20T07:12:46;3.13;;;1.25;;
26211;SDS011;13951;49.516;6.094;2022-08-20T07:15:22;3.60;;;1.55;;
26211;SDS011;13951;49.516;6.094;2022-08-20T07:17:58;3.13;;;1.33;;
26211;SDS011;13951;49.516;6.094;2022-08-20T07:20:39;4.13;;;1.58;;
26211;SDS011;13951;49.516;6.094;2022-08-20T07:23:13;3.58;;;1.40;;
26211;SDS011;13951;49.516;6.094;2022-08-20T07:25:47;5.03;;;1.70;;
26211;SDS011;13951;49.516;6.094;2022-08-20T07:28:21;1.80;;;1.17;;
26211;SDS011;13951;49.516;6.094;2022-08-20T07:30:55;2.95;;;1.02;;
26211;SDS011;13951;49.516;6.094;2022-08-20T07:33:47;5.10;;;1.25;;
26211;SDS011;13951;49.516;6.094;2022-08-20T07:36:21;2.65;;;1.17;;
26211;SDS011;13951;49.516;6.094;2022-08-20T07:38:55;2.80;;;1.27;;
26211;SDS011;13951;49.516;6.094;2022-08-20T07:41:28;1.70;;;1.13;;
26211;SDS011;13951;49.516;6.094;2022-08-20T07:44:01;4.45;;;1.27;;
26211;SDS011;13951;49.516;6.094;2022-08-20T07:46:34;1.25;;;1.00;;
26211;SDS011;13951;49.516;6.094;2022-08-20T07:49:07;1.58;;;1.00;;
26211;SDS011;13951;49.516;6.094;2022-08-20T07:51:41;2.25;;;1.05;;
26211;SDS011;13951;49.516;6.094;2022-08-20T07:54:14;4.13;;;1.20;;
26211;SDS011;13951;49.516;6.094;2022-08-20T07:56:47;1.35;;;1.10;;
26211;SDS011;13951;49.516;6.094;2022-08-20T07:59:21;1.90;;;1.33;;
26211;SDS011;13951;49.516;6.094;2022-08-20T08:01:55;2.25;;;1.38;;
26211;SDS011;13951;49.516;6.094;2022-08-20T08:04:31;1.48;;;0.90;;
26211;SDS011;13951;49.516;6.094;2022-08-20T08:07:04;2.63;;;1.35;;
26211;SDS011;13951;49.516;6.094;2022-08-20T08:09:38;1.42;;;0.90;;
26211;SDS011;13951;49.516;6.094;2022-08-20T08:12:11;2.05;;;1.50;;
26211;SDS011;13951;49.516;6.094;2022-08-20T08:14:46;1.60;;;1.20;;
26211;SDS011;13951;49.516;6.094;2022-08-20T08:17:20;2.42;;;0.95;;
26211;SDS011;13951;49.516;6.094;2022-08-20T08:19:53;1.77;;;1.30;;
26211;SDS011;13951;49.516;6.094;2022-08-20T08:22:27;1.98;;;1.25;;
26211;SDS011;13951;49.516;6.094;2022-08-20T08:25:04;3.38;;;1.50;;
26211;SDS011;13951;49.516;6.094;2022-08-20T08:27:38;1.60;;;1.25;;
26211;SDS011;13951;49.516;6.094;2022-08-20T08:30:11;3.78;;;1.35;;
26211;SDS011;13951;49.516;6.094;2022-08-20T08:32:45;2.88;;;1.45;;
26211;SDS011;13951;49.516;6.094;2022-08-20T08:35:37;1.55;;;1.38;;
26211;SDS011;13951;49.516;6.094;2022-08-20T08:38:12;2.70;;;1.35;;
26211;SDS011;13951;49.516;6.094;2022-08-20T08:40:46;1.98;;;1.45;;
26211;SDS011;13951;49.516;6.094;2022-08-20T08:43:24;2.90;;;1.50;;
26211;SDS011;13951;49.516;6.094;2022-08-20T08:46:03;2.53;;;1.20;;
26211;SDS011;13951;49.516;6.094;2022-08-20T08:48:40;4.53;;;1.48;;
26211;SDS011;13951;49.516;6.094;2022-08-20T08:51:24;2.90;;;1.45;;
26211;SDS011;13951;49.516;6.094;2022-08-20T08:54:12;6.78;;;2.00;;
26211;SDS011;13951;49.516;6.094;2022-08-20T08:56:47;2.20;;;1.55;;
26211;SDS011;13951;49.516;6.094;2022-08-20T08:59:22;2.90;;;1.45;;
26211;SDS011;13951;49.516;6.094;2022-08-20T09:02:21;2.47;;;1.67;;
26211;SDS011;13951;49.516;6.094;2022-08-20T09:04:58;3.28;;;1.40;;
26211;SDS011;13951;49.516;6.094;2022-08-20T09:07:34;1.88;;;1.17;;
26211;SDS011;13951;49.516;6.094;2022-08-20T09:10:08;3.00;;;1.38;;
26211;SDS011;13951;49.516;6.094;2022-08-20T09:12:41;2.40;;;1.27;;
26211;SDS011;13951;49.516;6.094;2022-08-20T09:15:19;2.65;;;1.60;;
26211;SDS011;13951;49.516;6.094;2022-08-20T09:17:54;3.70;;;1.65;;
26211;SDS011;13951;49.516;6.094;2022-08-20T09:20:27;1.42;;;1.05;;
26211;SDS011;13951;49.516;6.094;2022-08-20T09:23:03;3.72;;;1.77;;
26211;SDS011;13951;49.516;6.094;2022-08-20T09:25:37;3.38;;;1.50;;
26211;SDS011;13951;49.516;6.094;2022-08-20T09:28:10;4.47;;;1.70;;
26211;SDS011;13951;49.516;6.094;2022-08-20T09:30:45;2.72;;;1.70;;
26211;SDS011;13951;49.516;6.094;2022-08-20T09:33:19;2.58;;;1.60;;
26211;SDS011;13951;49.516;6.094;2022-08-20T09:36:00;3.58;;;1.70;;
26211;SDS011;13951;49.516;6.094;2022-08-20T09:53:13;5.97;;;1.70;;
26211;SDS011;13951;49.516;6.094;2022-08-20T09:55:51;5.10;;;1.90;;
26211;SDS011;13951;49.516;6.094;2022-08-20T09:58:41;4.38;;;1.90;;
26211;SDS011;13951;49.516;6.094;2022-08-20T10:01:26;3.25;;;1.70;;
26211;SDS011;13951;49.516;6.094;2022-08-20T10:04:01;4.60;;;1.85;;
26211;SDS011;13951;49.516;6.094;2022-08-20T10:06:37;2.95;;;1.73;;
26211;SDS011;13951;49.516;6.094;2022-08-20T10:09:12;3.50;;;1.75;;
26211;SDS011;13951;49.516;6.094;2022-08-20T10:11:45;4.25;;;2.05;;
26211;SDS011;13951;49.516;6.094;2022-08-20T10:14:18;2.42;;;1.63;;
26211;SDS011;13951;49.516;6.094;2022-08-20T10:16:55;3.65;;;1.67;;
26211;SDS011;13951;49.516;6.094;2022-08-20T10:19:31;3.45;;;1.65;;
26211;SDS011;13951;49.516;6.094;2022-08-20T10:22:04;3.50;;;1.80;;
26211;SDS011;13951;49.516;6.094;2022-08-20T10:24:37;4.75;;;1.83;;
26211;SDS011;13951;49.516;6.094;2022-08-20T10:27:12;3.55;;;1.80;;
26211;SDS011;13951;49.516;6.094;2022-08-20T10:29:45;6.40;;;1.50;;
26211;SDS011;13951;49.516;6.094;2022-08-20T10:32:18;3.63;;;1.52;;
26211;SDS011;13951;49.516;6.094;2022-08-20T10:34:52;4.32;;;1.50;;
26211;SDS011;13951;49.516;6.094;2022-08-20T10:37:25;3.93;;;1.67;;
26211;SDS011;13951;49.516;6.094;2022-08-20T10:39:58;3.45;;;1.75;;
26211;SDS011;13951;49.516;6.094;2022-08-20T10:42:32;4.30;;;2.00;;
26211;SDS011;13951;49.516;6.094;2022-08-20T10:45:05;3.63;;;1.70;;
26211;SDS011;13951;49.516;6.094;2022-08-20T10:47:39;3.92;;;1.75;;
26211;SDS011;13951;49.516;6.094;2022-08-20T10:50:15;1.50;;;1.38;;
26211;SDS011;13951;49.516;6.094;2022-08-20T10:52:51;2.60;;;1.55;;
26211;SDS011;13951;49.516;6.094;2022-08-20T10:55:30;2.53;;;1.48;;
26211;SDS011;13951;49.516;6.094;2022-08-20T10:58:09;2.17;;;1.67;;
26211;SDS011;13951;49.516;6.094;2022-08-20T11:00:54;2.25;;;1.30;;
26211;SDS011;13951;49.516;6.094;2022-08-20T11:03:27;4.60;;;1.23;;
26211;SDS011;13951;49.516;6.094;2022-08-20T11:06:01;3.15;;;1.80;;
26211;SDS011;13951;49.516;6.094;2022-08-20T11:08:34;3.90;;;1.30;;
26211;SDS011;13951;49.516;6.094;2022-08-20T11:11:07;2.33;;;1.65;;
26211;SDS011;13951;49.516;6.094;2022-08-20T11:13:40;4.00;;;1.52;;
26211;SDS011;13951;49.516;6.094;2022-08-20T11:16:13;2.75;;;1.42;;
26211;SDS011;13951;49.516;6.094;2022-08-20T11:18:46;3.53;;;1.40;;
26211;SDS011;13951;49.516;6.094;2022-08-20T11:21:22;2.67;;;1.35;;
26211;SDS011;13951;49.516;6.094;2022-08-20T11:23:55;3.33;;;1.30;;
26211;SDS011;13951;49.516;6.094;2022-08-20T11:26:34;4.53;;;1.60;;
26211;SDS011;13951;49.516;6.094;2022-08-20T11:29:07;5.80;;;1.70;;
26211;SDS011;13951;49.516;6.094;2022-08-20T11:31:42;2.45;;;1.05;;
26211;SDS011;13951;49.516;6.094;2022-08-20T11:34:15;3.38;;;1.50;;
26211;SDS011;13951;49.516;6.094;2022-08-20T11:36:48;2.67;;;1.40;;
26211;SDS011;13951;49.516;6.094;2022-08-20T11:45:53;3.97;;;1.20;;
26211;SDS011;13951;49.516;6.094;2022-08-20T11:48:32;3.38;;;1.00;;
26211;SDS011;13951;49.516;6.094;2022-08-20T11:56:16;3.33;;;1.20;;
26211;SDS011;13951;49.516;6.094;2022-08-20T11:58:55;5.03;;;1.17;;
26211;SDS011;13951;49.516;6.094;2022-08-20T12:01:30;4.82;;;1.30;;
26211;SDS011;13951;49.516;6.094;2022-08-20T12:04:11;3.25;;;1.10;;
26211;SDS011;13951;49.516;6.094;2022-08-20T12:07:34;3.53;;;1.42;;
26211;SDS011;13951;49.516;6.094;2022-08-20T12:10:09;3.53;;;1.33;;
26211;SDS011;13951;49.516;6.094;2022-08-20T12:12:42;2.88;;;1.23;;
26211;SDS011;13951;49.516;6.094;2022-08-20T12:15:16;3.05;;;1.20;;
26211;SDS011;13951;49.516;6.094;2022-08-20T12:17:50;3.03;;;1.23;;
26211;SDS011;13951;49.516;6.094;2022-08-20T12:20:23;3.65;;;1.20;;
26211;SDS011;13951;49.516;6.094;2022-08-20T12:22:57;2.13;;;1.10;;
26211;SDS011;13951;49.516;6.094;2022-08-20T12:25:30;2.67;;;1.30;;
26211;SDS011;13951;49.516;6.094;2022-08-20T12:28:04;3.25;;;1.20;;
26211;SDS011;13951;49.516;6.094;2022-08-20T12:30:37;4.32;;;1.13;;
26211;SDS011;13951;49.516;6.094;2022-08-20T12:33:10;2.90;;;1.13;;
26211;SDS011;13951;49.516;6.094;2022-08-20T12:35:43;4.53;;;1.30;;
26211;SDS011;13951;49.516;6.094;2022-08-20T12:38:16;1.88;;;0.85;;
26211;SDS011;13951;49.516;6.094;2022-08-20T12:40:49;2.17;;;1.02;;
26211;SDS011;13951;49.516;6.094;2022-08-20T12:43:22;3.28;;;1.13;;
26211;SDS011;13951;49.516;6.094;2022-08-20T12:45:56;3.28;;;1.30;;
26211;SDS011;13951;49.516;6.094;2022-08-20T12:48:29;2.17;;;1.23;;
26211;SDS011;13951;49.516;6.094;2022-08-20T12:51:02;2.55;;;1.00;;
26211;SDS011;13951;49.516;6.094;2022-08-20T12:53:36;3.75;;;1.20;;
26211;SDS011;13951;49.516;6.094;2022-08-20T12:56:09;3.65;;;1.20;;
26211;SDS011;13951;49.516;6.094;2022-08-20T12:58:42;4.07;;;1.30;;
26211;SDS011;13951;49.516;6.094;2022-08-20T13:01:17;2.55;;;1.10;;
26211;SDS011;13951;49.516;6.094;2022-08-20T13:03:53;3.92;;;1.30;;
26211;SDS011;13951;49.516;6.094;2022-08-20T13:06:26;1.77;;;1.00;;
26211;SDS011;13951;49.516;6.094;2022-08-20T13:08:59;2.25;;;1.23;;
26211;SDS011;13951;49.516;6.094;2022-08-20T13:11:32;3.22;;;1.40;;
26211;SDS011;13951;49.516;6.094;2022-08-20T13:14:06;2.45;;;1.27;;
26211;SDS011;13951;49.516;6.094;2022-08-20T13:16:39;4.20;;;1.75;;
26211;SDS011;13951;49.516;6.094;2022-08-20T13:19:12;2.08;;;1.42;;
26211;SDS011;13951;49.516;6.094;2022-08-20T13:21:46;3.53;;;1.52;;
26211;SDS011;13951;49.516;6.094;2022-08-20T13:24:26;3.75;;;1.23;;
26211;SDS011;13951;49.516;6.094;2022-08-20T13:27:03;6.50;;;3.53;;
26211;SDS011;13951;49.516;6.094;2022-08-20T13:29:38;3.65;;;1.67;;
26211;SDS011;13951;49.516;6.094;2022-08-20T13:32:20;3.13;;;1.40;;
26211;SDS011;13951;49.516;6.094;2022-08-20T13:34:54;3.40;;;1.45;;
26211;SDS011;13951;49.516;6.094;2022-08-20T13:37:27;3.88;;;1.50;;
26211;SDS011;13951;49.516;6.094;2022-08-20T13:40:01;2.40;;;1.30;;
26211;SDS011;13951;49.516;6.094;2022-08-20T13:42:37;3.20;;;1.33;;
26211;SDS011;13951;49.516;6.094;2022-08-20T13:45:10;3.42;;;1.40;;
26211;SDS011;13951;49.516;6.094;2022-08-20T13:47:43;2.42;;;1.23;;
26211;SDS011;13951;49.516;6.094;2022-08-20T13:50:17;3.92;;;1.60;;
26211;SDS011;13951;49.516;6.094;2022-08-20T13:52:51;2.63;;;1.48;;
26211;SDS011;13951;49.516;6.094;2022-08-20T13:55:25;3.47;;;1.45;;
26211;SDS011;13951;49.516;6.094;2022-08-20T13:58:03;4.03;;;1.25;;
26211;SDS011;13951;49.516;6.094;2022-08-20T14:00:37;3.00;;;1.55;;
26211;SDS011;13951;49.516;6.094;2022-08-20T14:03:10;4.78;;;1.52;;
26211;SDS011;13951;49.516;6.094;2022-08-20T14:05:45;3.92;;;1.50;;
26211;SDS011;13951;49.516;6.094;2022-08-20T14:08:19;3.05;;;1.33;;
26211;SDS011;13951;49.516;6.094;2022-08-20T14:10:54;4.22;;;1.80;;
26211;SDS011;13951;49.516;6.094;2022-08-20T14:13:27;3.50;;;1.75;;
26211;SDS011;13951;49.516;6.094;2022-08-20T14:16:00;4.68;;;1.95;;
26211;SDS011;13951;49.516;6.094;2022-08-20T14:18:34;3.83;;;1.77;;
26211;SDS011;13951;49.516;6.094;2022-08-20T14:21:07;4.07;;;1.80;;
26211;SDS011;13951;49.516;6.094;2022-08-20T14:23:41;3.05;;;1.60;;
26211;SDS011;13951;49.516;6.094;2022-08-20T14:26:15;2.75;;;1.58;;
26211;SDS011;13951;49.516;6.094;2022-08-20T14:28:48;3.10;;;1.48;;
26211;SDS011;13951;49.516;6.094;2022-08-20T14:31:21;3.35;;;1.73;;
26211;SDS011;13951;49.516;6.094;2022-08-20T14:33:55;4.30;;;1.67;;
26211;SDS011;13951;49.516;6.094;2022-08-20T14:36:28;2.47;;;1.50;;
26211;SDS011;13951;49.516;6.094;2022-08-20T14:39:01;3.53;;;1.50;;
26211;SDS011;13951;49.516;6.094;2022-08-20T14:41:34;2.50;;;1.75;;
26211;SDS011;13951;49.516;6.094;2022-08-20T14:44:07;3.67;;;1.60;;
26211;SDS011;13951;49.516;6.094;2022-08-20T14:46:40;3.40;;;1.45;;
26211;SDS011;13951;49.516;6.094;2022-08-20T14:49:13;3.72;;;1.58;;
26211;SDS011;13951;49.516;6.094;2022-08-20T14:51:46;4.88;;;1.83;;
26211;SDS011;13951;49.516;6.094;2022-08-20T14:54:19;3.63;;;1.50;;
26211;SDS011;13951;49.516;6.094;2022-08-20T14:56:52;2.60;;;1.40;;
26211;SDS011;13951;49.516;6.094;2022-08-20T14:59:26;3.70;;;1.63;;
26211;SDS011;13951;49.516;6.094;2022-08-20T15:01:59;4.65;;;1.48;;
26211;SDS011;13951;49.516;6.094;2022-08-20T15:04:33;2.08;;;1.27;;
26211;SDS011;13951;49.516;6.094;2022-08-20T15:07:13;3.40;;;1.70;;
26211;SDS011;13951;49.516;6.094;2022-08-20T15:09:53;2.88;;;1.80;;
26211;SDS011;13951;49.516;6.094;2022-08-20T15:12:27;2.78;;;1.65;;
26211;SDS011;13951;49.516;6.094;2022-08-20T15:15:01;9.50;;;2.30;;
26211;SDS011;13951;49.516;6.094;2022-08-20T15:17:49;3.75;;;1.70;;
26211;SDS011;13951;49.516;6.094;2022-08-20T15:20:25;2.92;;;1.80;;
26211;SDS011;13951;49.516;6.094;2022-08-20T15:23:01;3.22;;;1.55;;
26211;SDS011;13951;49.516;6.094;2022-08-20T15:25:35;2.17;;;1.40;;
26211;SDS011;13951;49.516;6.094;2022-08-20T15:28:09;4.32;;;1.60;;
26211;SDS011;13951;49.516;6.094;2022-08-20T15:30:42;4.05;;;2.08;;
26211;SDS011;13951;49.516;6.094;2022-08-20T15:33:15;2.20;;;1.40;;
26211;SDS011;13951;49.516;6.094;2022-08-20T15:35:48;3.75;;;1.60;;
26211;SDS011;13951;49.516;6.094;2022-08-20T15:38:21;3.50;;;1.52;;
26211;SDS011;13951;49.516;6.094;2022-08-20T15:40:54;1.70;;;1.20;;
26211;SDS011;13951;49.516;6.094;2022-08-20T15:43:28;3.50;;;1.48;;
26211;SDS011;13951;49.516;6.094;2022-08-20T15:46:03;2.30;;;1.50;;
26211;SDS011;13951;49.516;6.094;2022-08-20T15:48:39;3.45;;;1.45;;
26211;SDS011;13951;49.516;6.094;2022-08-20T15:54:16;3.22;;;1.90;;
26211;SDS011;13951;49.516;6.094;2022-08-20T16:02:45;1.83;;;1.40;;
26211;SDS011;13951;49.516;6.094;2022-08-20T16:11:30;4.60;;;2.45;;
26211;SDS011;13951;49.516;6.094;2022-08-20T16:14:22;2.70;;;1.80;;
26211;SDS011;13951;49.516;6.094;2022-08-20T16:17:12;2.20;;;1.38;;
26211;SDS011;13951;49.516;6.094;2022-08-20T16:19:56;3.25;;;1.63;;
26211;SDS011;13951;49.516;6.094;2022-08-20T16:22:45;2.83;;;1.50;;
26211;SDS011;13951;49.516;6.094;2022-08-20T16:25:18;2.63;;;1.70;;
26211;SDS011;13951;49.516;6.094;2022-08-20T16:28:23;3.92;;;1.52;;